VKG4129 LGSK-EKCH
Flight info
| Callsign | VKG4129 |
|---|---|
| Flight time | N/A |
| Altitude | 38000 |
| Route | IBIDI UL617 MAKED DCT SKJ DCT LONTA UM749 UDVAR DCT NANER DCT TADAM DCT RIGMU DCT BABIT DCT BEGLA DCT NAVTI DCT ODLIV DCT HDO/N0451F390 M725 IDOBA DCT USEDU/N0433F360 M602 PENET T298 MONAK |
| Aircraft | A321/M-SDE3FGHIRWY/LB1 |
Departure
| Time | 2026-05-09 11:17 |
|---|---|
| Airport | Skiathos Island National Airport (LGSK) |
Arrival
| Time | N/A |
|---|---|
| Airport | Copenhagen Kastrup Airport (EKCH) |
| Time | Latitude | Longitude | Altitude | Speed | Heading |
|---|---|---|---|---|---|
| 2026-05-09 10:54 | 39.17800 | 23.50193 | 40 ft | 0 kts | 288° |
| 2026-05-09 11:08 | 39.17798 | 23.50203 | 39 ft | 4 kts | 301° |
| 2026-05-09 11:08 | 39.17786 | 23.50220 | 37 ft | 4 kts | 311° |
| 2026-05-09 11:08 | 39.17774 | 23.50245 | 39 ft | 4 kts | 273° |
| 2026-05-09 11:09 | 39.17780 | 23.50272 | 36 ft | 4 kts | 222° |
| 2026-05-09 11:09 | 39.17792 | 23.50283 | 39 ft | 0 kts | 199° |
| 2026-05-09 11:11 | 39.17790 | 23.50282 | 38 ft | 2 kts | 199° |
| 2026-05-09 11:11 | 39.17745 | 23.50264 | 39 ft | 8 kts | 192° |
| 2026-05-09 11:12 | 39.17730 | 23.50265 | 39 ft | 0 kts | 168° |
| 2026-05-09 11:13 | 39.17730 | 23.50266 | 39 ft | 1 kts | 168° |
| 2026-05-09 11:13 | 39.17707 | 23.50292 | 40 ft | 9 kts | 116° |
| 2026-05-09 11:13 | 39.17641 | 23.50334 | 42 ft | 17 kts | 194° |
| 2026-05-09 11:13 | 39.17514 | 23.50281 | 40 ft | 21 kts | 199° |
| 2026-05-09 11:14 | 39.17364 | 23.50212 | 34 ft | 25 kts | 199° |
| 2026-05-09 11:14 | 39.17203 | 23.50141 | 23 ft | 19 kts | 199° |
| 2026-05-09 11:14 | 39.17088 | 23.50092 | 18 ft | 14 kts | 192° |
| 2026-05-09 11:14 | 39.17022 | 23.50083 | 12 ft | 0 kts | 221° |
| 2026-05-09 11:15 | 39.17018 | 23.50077 | 11 ft | 5 kts | 232° |
| 2026-05-09 11:15 | 39.17016 | 23.50056 | 11 ft | 0 kts | 277° |
| 2026-05-09 11:15 | 39.17023 | 23.50044 | 11 ft | 2 kts | 313° |
| 2026-05-09 11:15 | 39.17039 | 23.50043 | 12 ft | 7 kts | 9° |
| 2026-05-09 11:16 | 39.17070 | 23.50082 | 17 ft | 5 kts | 33° |
| 2026-05-09 11:16 | 39.17111 | 23.50101 | 19 ft | 16 kts | 19° |
| 2026-05-09 11:16 | 39.17401 | 23.50227 | 37 ft | 89 kts | 19° |
| 2026-05-09 11:16 | 39.18290 | 23.50624 | 107 ft | 172 kts | 19° |
| 2026-05-09 11:17 | 39.19463 | 23.51148 | 1005 ft | 178 kts | 20° |
| 2026-05-09 11:17 | 39.20640 | 23.51672 | 2083 ft | 177 kts | 19° |
| 2026-05-09 11:17 | 39.21819 | 23.52161 | 2609 ft | 185 kts | 10° |
| 2026-05-09 11:17 | 39.23141 | 23.51970 | 2802 ft | 204 kts | 338° |
| 2026-05-09 11:18 | 39.24546 | 23.51305 | 2955 ft | 225 kts | 339° |
| 2026-05-09 11:18 | 39.26115 | 23.50634 | 3193 ft | 249 kts | 340° |
| 2026-05-09 11:18 | 39.27833 | 23.49922 | 3801 ft | 265 kts | 340° |
| 2026-05-09 11:18 | 39.29605 | 23.49194 | 4805 ft | 268 kts | 339° |
| 2026-05-09 11:19 | 39.31400 | 23.48452 | 5789 ft | 271 kts | 339° |
| 2026-05-09 11:19 | 39.33186 | 23.47705 | 6731 ft | 275 kts | 338° |
| 2026-05-09 11:19 | 39.35019 | 23.46931 | 7654 ft | 279 kts | 338° |
| 2026-05-09 11:19 | 39.36862 | 23.46109 | 8570 ft | 282 kts | 336° |
| 2026-05-09 11:20 | 39.38706 | 23.45185 | 9508 ft | 285 kts | 334° |
| 2026-05-09 11:20 | 39.40560 | 23.44210 | 10333 ft | 292 kts | 333° |
| 2026-05-09 11:20 | 39.42520 | 23.43159 | 10657 ft | 316 kts | 333° |
| 2026-05-09 11:20 | 39.44604 | 23.42043 | 11191 ft | 329 kts | 334° |
| 2026-05-09 11:21 | 39.46763 | 23.40901 | 12011 ft | 334 kts | 334° |
| 2026-05-09 11:21 | 39.48901 | 23.39779 | 12860 ft | 337 kts | 334° |
| 2026-05-09 11:21 | 39.51086 | 23.38638 | 13720 ft | 340 kts | 334° |
| 2026-05-09 11:21 | 39.53297 | 23.37481 | 14521 ft | 344 kts | 333° |
| 2026-05-09 11:22 | 39.55526 | 23.36313 | 15318 ft | 347 kts | 333° |
| 2026-05-09 11:22 | 39.57773 | 23.35136 | 16070 ft | 350 kts | 333° |
| 2026-05-09 11:22 | 39.60048 | 23.33944 | 16821 ft | 354 kts | 333° |
| 2026-05-09 11:22 | 39.62340 | 23.32741 | 17561 ft | 357 kts | 333° |
| 2026-05-09 11:23 | 39.64658 | 23.31521 | 18298 ft | 361 kts | 333° |
| 2026-05-09 11:23 | 39.66998 | 23.30288 | 18930 ft | 364 kts | 333° |
| 2026-05-09 11:23 | 39.69345 | 23.29051 | 19579 ft | 366 kts | 333° |
| 2026-05-09 11:23 | 39.71715 | 23.27802 | 20218 ft | 369 kts | 333° |
| 2026-05-09 11:24 | 39.74103 | 23.26543 | 20862 ft | 371 kts | 333° |
| 2026-05-09 11:24 | 39.76472 | 23.25294 | 21482 ft | 373 kts | 333° |
| 2026-05-09 11:24 | 39.78887 | 23.24021 | 22100 ft | 376 kts | 333° |
| 2026-05-09 11:24 | 39.81357 | 23.22715 | 22723 ft | 379 kts | 333° |
| 2026-05-09 11:25 | 39.83813 | 23.21414 | 23305 ft | 382 kts | 333° |
| 2026-05-09 11:25 | 39.86253 | 23.20122 | 23842 ft | 385 kts | 334° |
| 2026-05-09 11:25 | 39.88746 | 23.18799 | 24324 ft | 388 kts | 334° |
| 2026-05-09 11:25 | 39.91254 | 23.17467 | 24802 ft | 390 kts | 334° |
| 2026-05-09 11:26 | 39.93773 | 23.16130 | 25273 ft | 393 kts | 334° |
| 2026-05-09 11:26 | 39.96313 | 23.14780 | 25741 ft | 395 kts | 334° |
| 2026-05-09 11:26 | 39.98872 | 23.13420 | 26205 ft | 398 kts | 334° |
| 2026-05-09 11:26 | 40.01439 | 23.12053 | 26679 ft | 400 kts | 334° |
| 2026-05-09 11:27 | 40.04029 | 23.10675 | 27135 ft | 403 kts | 334° |
| 2026-05-09 11:27 | 40.06633 | 23.09288 | 27557 ft | 406 kts | 335° |
| 2026-05-09 11:27 | 40.09259 | 23.07888 | 28004 ft | 409 kts | 335° |
| 2026-05-09 11:27 | 40.11906 | 23.06475 | 28445 ft | 411 kts | 335° |
| 2026-05-09 11:28 | 40.14564 | 23.05053 | 28884 ft | 414 kts | 335° |
| 2026-05-09 11:28 | 40.17234 | 23.03624 | 29296 ft | 416 kts | 335° |
| 2026-05-09 11:28 | 40.19936 | 23.02176 | 29727 ft | 419 kts | 335° |
| 2026-05-09 11:28 | 40.22639 | 23.00730 | 30106 ft | 421 kts | 335° |
| 2026-05-09 11:29 | 40.24443 | 22.99768 | 30327 ft | 423 kts | 335° |
| 2026-05-09 11:29 | 40.27174 | 22.98310 | 30665 ft | 425 kts | 335° |
| 2026-05-09 11:29 | 40.29925 | 22.96840 | 30960 ft | 428 kts | 335° |
| 2026-05-09 11:29 | 40.32670 | 22.95310 | 31292 ft | 429 kts | 330° |
| 2026-05-09 11:30 | 40.35227 | 22.93300 | 31759 ft | 426 kts | 326° |
| 2026-05-09 11:30 | 40.37721 | 22.91230 | 32289 ft | 424 kts | 325° |
| 2026-05-09 11:30 | 40.40199 | 22.89149 | 32815 ft | 421 kts | 323° |
| 2026-05-09 11:30 | 40.42596 | 22.86946 | 33339 ft | 419 kts | 322° |
| 2026-05-09 11:31 | 40.44971 | 22.84744 | 33875 ft | 417 kts | 322° |
| 2026-05-09 11:31 | 40.47357 | 22.82602 | 34330 ft | 416 kts | 324° |
| 2026-05-09 11:31 | 40.49800 | 22.80567 | 34757 ft | 415 kts | 326° |
| 2026-05-09 11:31 | 40.52270 | 22.78612 | 35157 ft | 414 kts | 326° |
| 2026-05-09 11:32 | 40.54750 | 22.76694 | 35568 ft | 413 kts | 326° |
| 2026-05-09 11:32 | 40.57221 | 22.74787 | 35983 ft | 411 kts | 326° |
| 2026-05-09 11:32 | 40.59678 | 22.72872 | 36364 ft | 410 kts | 326° |
| 2026-05-09 11:32 | 40.62124 | 22.70938 | 36733 ft | 409 kts | 325° |
| 2026-05-09 11:33 | 40.64555 | 22.68993 | 37090 ft | 409 kts | 325° |
| 2026-05-09 11:33 | 40.66975 | 22.67044 | 37441 ft | 408 kts | 325° |
| 2026-05-09 11:33 | 40.71793 | 22.63157 | 38005 ft | 408 kts | 325° |
| 2026-05-09 11:34 | 40.76497 | 22.59359 | 38045 ft | 407 kts | 325° |
| 2026-05-09 11:34 | 40.81084 | 22.55658 | 38047 ft | 407 kts | 325° |
| 2026-05-09 11:35 | 40.85803 | 22.51844 | 38044 ft | 407 kts | 325° |
| 2026-05-09 11:35 | 40.90654 | 22.47921 | 38043 ft | 407 kts | 325° |
| 2026-05-09 11:36 | 40.95489 | 22.44009 | 38048 ft | 407 kts | 325° |
| 2026-05-09 11:36 | 41.00328 | 22.40082 | 38068 ft | 408 kts | 325° |
| 2026-05-09 11:37 | 41.05167 | 22.36142 | 38064 ft | 409 kts | 325° |
| 2026-05-09 11:37 | 41.10311 | 22.32819 | 38067 ft | 412 kts | 331° |
| 2026-05-09 11:38 | 41.15507 | 22.29605 | 38071 ft | 412 kts | 331° |
| 2026-05-09 11:38 | 41.20696 | 22.26371 | 38073 ft | 411 kts | 331° |
| 2026-05-09 11:39 | 41.25889 | 22.23139 | 38080 ft | 412 kts | 331° |
| 2026-05-09 11:40 | 41.33701 | 22.18283 | 38082 ft | 413 kts | 331° |
| 2026-05-09 11:40 | 41.38872 | 22.15066 | 38077 ft | 413 kts | 331° |
| 2026-05-09 11:41 | 41.44086 | 22.11811 | 38075 ft | 413 kts | 331° |
| 2026-05-09 11:41 | 41.49219 | 22.08594 | 38079 ft | 413 kts | 331° |
| 2026-05-09 11:42 | 41.54429 | 22.05333 | 38072 ft | 414 kts | 331° |
| 2026-05-09 11:42 | 41.59649 | 22.02062 | 38066 ft | 414 kts | 331° |
| 2026-05-09 11:43 | 41.64834 | 21.98807 | 38062 ft | 414 kts | 331° |
| 2026-05-09 11:43 | 41.70088 | 21.95506 | 38071 ft | 414 kts | 331° |
| 2026-05-09 11:44 | 41.75265 | 21.92231 | 38075 ft | 415 kts | 331° |
| 2026-05-09 11:44 | 41.80516 | 21.88901 | 38076 ft | 415 kts | 331° |
| 2026-05-09 11:45 | 41.85614 | 21.85678 | 38080 ft | 415 kts | 331° |
| 2026-05-09 11:45 | 41.90837 | 21.82369 | 38098 ft | 415 kts | 332° |
| 2026-05-09 11:46 | 41.96070 | 21.79049 | 38093 ft | 416 kts | 331° |
| 2026-05-09 11:46 | 42.01314 | 21.75709 | 38087 ft | 416 kts | 331° |
| 2026-05-09 11:47 | 42.06546 | 21.72369 | 38083 ft | 416 kts | 331° |
| 2026-05-09 11:47 | 42.11777 | 21.69030 | 38088 ft | 416 kts | 331° |
| 2026-05-09 11:48 | 42.17044 | 21.65662 | 38089 ft | 416 kts | 331° |
| 2026-05-09 11:48 | 42.22281 | 21.62301 | 38078 ft | 417 kts | 331° |
| 2026-05-09 11:49 | 42.27515 | 21.58936 | 38079 ft | 417 kts | 331° |
| 2026-05-09 11:49 | 42.32795 | 21.55536 | 38075 ft | 417 kts | 331° |
| 2026-05-09 11:50 | 42.38067 | 21.52145 | 38082 ft | 417 kts | 331° |
| 2026-05-09 11:50 | 42.43322 | 21.48753 | 38081 ft | 418 kts | 331° |
| 2026-05-09 11:51 | 42.48565 | 21.45361 | 38085 ft | 418 kts | 331° |
| 2026-05-09 11:51 | 42.53818 | 21.41957 | 38094 ft | 418 kts | 331° |
| 2026-05-09 11:52 | 42.59066 | 21.38540 | 38109 ft | 418 kts | 331° |
| 2026-05-09 11:52 | 42.64318 | 21.35123 | 38109 ft | 419 kts | 331° |
| 2026-05-09 11:53 | 42.69546 | 21.31716 | 38106 ft | 419 kts | 331° |
| 2026-05-09 11:53 | 42.74843 | 21.28257 | 38109 ft | 419 kts | 331° |
| 2026-05-09 11:54 | 42.80064 | 21.24830 | 38110 ft | 419 kts | 331° |
| 2026-05-09 11:54 | 42.85313 | 21.21370 | 38104 ft | 419 kts | 330° |
| 2026-05-09 11:55 | 42.90510 | 21.17767 | 38107 ft | 418 kts | 329° |
| 2026-05-09 11:56 | 43.06014 | 21.06787 | 38112 ft | 418 kts | 329° |
| 2026-05-09 11:57 | 43.11187 | 21.03149 | 38108 ft | 418 kts | 329° |
| 2026-05-09 11:57 | 43.16367 | 20.99495 | 38105 ft | 418 kts | 329° |
| 2026-05-09 11:58 | 43.21534 | 20.95838 | 38107 ft | 418 kts | 329° |
| 2026-05-09 11:58 | 43.26664 | 20.92191 | 38114 ft | 417 kts | 329° |
| 2026-05-09 11:59 | 43.31823 | 20.88520 | 38110 ft | 417 kts | 329° |
| 2026-05-09 11:59 | 43.36972 | 20.84852 | 38105 ft | 417 kts | 329° |
| 2026-05-09 12:00 | 43.42123 | 20.81187 | 38103 ft | 417 kts | 329° |
| 2026-05-09 12:00 | 43.47277 | 20.77503 | 38116 ft | 417 kts | 329° |
| 2026-05-09 12:01 | 43.52429 | 20.73808 | 38111 ft | 417 kts | 329° |
| 2026-05-09 12:01 | 43.56705 | 20.70740 | 38104 ft | 417 kts | 329° |
| 2026-05-09 12:02 | 43.61897 | 20.67008 | 38105 ft | 417 kts | 329° |
| 2026-05-09 12:02 | 43.67045 | 20.63298 | 38099 ft | 417 kts | 329° |
| 2026-05-09 12:03 | 43.72168 | 20.59607 | 38098 ft | 418 kts | 329° |
| 2026-05-09 12:03 | 43.77360 | 20.55853 | 38091 ft | 418 kts | 328° |
| 2026-05-09 12:04 | 43.82508 | 20.52113 | 38086 ft | 418 kts | 328° |
| 2026-05-09 12:04 | 43.87645 | 20.48389 | 38086 ft | 418 kts | 328° |
| 2026-05-09 12:05 | 43.92844 | 20.44620 | 38106 ft | 419 kts | 328° |
| 2026-05-09 12:05 | 43.98012 | 20.40850 | 38105 ft | 419 kts | 328° |
| 2026-05-09 12:06 | 44.03188 | 20.37070 | 38102 ft | 419 kts | 328° |
| 2026-05-09 12:06 | 44.08324 | 20.33309 | 38101 ft | 419 kts | 328° |
| 2026-05-09 12:07 | 44.13498 | 20.29519 | 38096 ft | 420 kts | 328° |
| 2026-05-09 12:07 | 44.18701 | 20.25694 | 38106 ft | 420 kts | 328° |
| 2026-05-09 12:08 | 44.23880 | 20.21877 | 38102 ft | 420 kts | 328° |
| 2026-05-09 12:08 | 44.28973 | 20.18128 | 38096 ft | 420 kts | 328° |
| 2026-05-09 12:09 | 44.34147 | 20.14313 | 38091 ft | 420 kts | 328° |
| 2026-05-09 12:09 | 44.39310 | 20.10485 | 38102 ft | 420 kts | 328° |
| 2026-05-09 12:10 | 44.49640 | 20.02811 | 38085 ft | 420 kts | 328° |
| 2026-05-09 12:11 | 44.54814 | 19.98965 | 38085 ft | 421 kts | 328° |
| 2026-05-09 12:11 | 44.59995 | 19.95105 | 38098 ft | 421 kts | 328° |
| 2026-05-09 12:12 | 44.65214 | 19.91202 | 38093 ft | 422 kts | 328° |
| 2026-05-09 12:12 | 44.70391 | 19.87318 | 38090 ft | 422 kts | 328° |
| 2026-05-09 12:13 | 44.75572 | 19.83417 | 38088 ft | 422 kts | 328° |
| 2026-05-09 12:13 | 44.80745 | 19.79516 | 38082 ft | 422 kts | 328° |
| 2026-05-09 12:14 | 44.85924 | 19.75621 | 38108 ft | 422 kts | 328° |
| 2026-05-09 12:14 | 44.91104 | 19.71709 | 38102 ft | 422 kts | 328° |
| 2026-05-09 12:15 | 44.96287 | 19.67777 | 38087 ft | 422 kts | 328° |
| 2026-05-09 12:15 | 45.01469 | 19.63852 | 38084 ft | 423 kts | 328° |
| 2026-05-09 12:16 | 45.06653 | 19.59911 | 38078 ft | 422 kts | 327° |
| 2026-05-09 12:16 | 45.11834 | 19.55970 | 38072 ft | 423 kts | 328° |
| 2026-05-09 12:17 | 45.17027 | 19.52012 | 38084 ft | 423 kts | 327° |
| 2026-05-09 12:17 | 45.22202 | 19.48049 | 38092 ft | 422 kts | 327° |
| 2026-05-09 12:18 | 45.27374 | 19.44076 | 38077 ft | 422 kts | 327° |
| 2026-05-09 12:18 | 45.32573 | 19.40080 | 38091 ft | 422 kts | 327° |
| 2026-05-09 12:19 | 45.37775 | 19.36075 | 38084 ft | 421 kts | 327° |
| 2026-05-09 12:19 | 45.42964 | 19.32069 | 38083 ft | 421 kts | 327° |
| 2026-05-09 12:20 | 45.47317 | 19.28704 | 38082 ft | 421 kts | 327° |
| 2026-05-09 12:20 | 45.52470 | 19.24721 | 38081 ft | 421 kts | 327° |
| 2026-05-09 12:21 | 45.57628 | 19.20725 | 38094 ft | 421 kts | 327° |
| 2026-05-09 12:21 | 45.62773 | 19.16712 | 38089 ft | 422 kts | 327° |
| 2026-05-09 12:22 | 45.67927 | 19.12689 | 38092 ft | 422 kts | 327° |
| 2026-05-09 12:22 | 45.73118 | 19.08639 | 38088 ft | 422 kts | 327° |
| 2026-05-09 12:23 | 45.78274 | 19.04603 | 38100 ft | 422 kts | 327° |
| 2026-05-09 12:23 | 45.83440 | 19.00523 | 38093 ft | 421 kts | 326° |
| 2026-05-09 12:24 | 45.88445 | 18.96160 | 38091 ft | 420 kts | 323° |
| 2026-05-09 12:24 | 45.93360 | 18.91642 | 38085 ft | 420 kts | 323° |
| 2026-05-09 12:25 | 45.98309 | 18.87127 | 38096 ft | 420 kts | 323° |
| 2026-05-09 12:25 | 46.03270 | 18.82666 | 38102 ft | 420 kts | 323° |
| 2026-05-09 12:26 | 46.08206 | 18.78230 | 38101 ft | 420 kts | 323° |
| 2026-05-09 12:26 | 46.13159 | 18.73764 | 38096 ft | 420 kts | 323° |
| 2026-05-09 12:27 | 46.18110 | 18.69281 | 38088 ft | 420 kts | 323° |
| 2026-05-09 12:27 | 46.23062 | 18.64793 | 38090 ft | 419 kts | 323° |
| 2026-05-09 12:28 | 46.27995 | 18.60316 | 38099 ft | 420 kts | 323° |
| 2026-05-09 12:28 | 46.32957 | 18.55792 | 38087 ft | 420 kts | 323° |
| 2026-05-09 12:29 | 46.37902 | 18.51279 | 38080 ft | 420 kts | 323° |
| 2026-05-09 12:29 | 46.42836 | 18.46762 | 38080 ft | 420 kts | 323° |
| 2026-05-09 12:30 | 46.47789 | 18.42220 | 38079 ft | 420 kts | 323° |
| 2026-05-09 12:30 | 46.55172 | 18.35433 | 38086 ft | 421 kts | 323° |
| 2026-05-09 12:31 | 46.62597 | 18.28589 | 38072 ft | 422 kts | 323° |
| 2026-05-09 12:32 | 46.67551 | 18.24004 | 38089 ft | 422 kts | 323° |
| 2026-05-09 12:32 | 46.72518 | 18.19400 | 38090 ft | 422 kts | 323° |
| 2026-05-09 12:33 | 46.77473 | 18.14800 | 38103 ft | 422 kts | 323° |
| 2026-05-09 12:33 | 46.82413 | 18.10205 | 38098 ft | 423 kts | 323° |
| 2026-05-09 12:34 | 46.87372 | 18.05575 | 38093 ft | 423 kts | 323° |
| 2026-05-09 12:34 | 46.92302 | 18.00961 | 38098 ft | 423 kts | 323° |
| 2026-05-09 12:35 | 46.97266 | 17.96310 | 38105 ft | 423 kts | 323° |
| 2026-05-09 12:35 | 47.02263 | 17.91612 | 38125 ft | 423 kts | 323° |
| 2026-05-09 12:36 | 47.07229 | 17.86949 | 38122 ft | 424 kts | 323° |
| 2026-05-09 12:36 | 47.12195 | 17.82263 | 38114 ft | 424 kts | 323° |
| 2026-05-09 12:37 | 47.17155 | 17.77575 | 38107 ft | 424 kts | 323° |
| 2026-05-09 12:37 | 47.22113 | 17.72876 | 38101 ft | 424 kts | 323° |
| 2026-05-09 12:38 | 47.27074 | 17.68155 | 38097 ft | 424 kts | 323° |
| 2026-05-09 12:38 | 47.32036 | 17.63429 | 38116 ft | 425 kts | 323° |
| 2026-05-09 12:39 | 47.37004 | 17.58694 | 38101 ft | 425 kts | 323° |
| 2026-05-09 12:39 | 47.41968 | 17.53956 | 38097 ft | 425 kts | 323° |
| 2026-05-09 12:40 | 47.46827 | 17.49301 | 38100 ft | 425 kts | 323° |
| 2026-05-09 12:40 | 47.51797 | 17.44525 | 38100 ft | 425 kts | 323° |
| 2026-05-09 12:41 | 47.56792 | 17.39708 | 38111 ft | 425 kts | 323° |
| 2026-05-09 12:41 | 47.61717 | 17.34953 | 38113 ft | 425 kts | 323° |
| 2026-05-09 12:42 | 47.66666 | 17.30165 | 38115 ft | 425 kts | 323° |
| 2026-05-09 12:42 | 47.71600 | 17.25382 | 38116 ft | 425 kts | 323° |
| 2026-05-09 12:43 | 47.76553 | 17.20571 | 38118 ft | 424 kts | 323° |
| 2026-05-09 12:43 | 47.81464 | 17.15775 | 38131 ft | 424 kts | 323° |
| 2026-05-09 12:44 | 47.86344 | 17.11014 | 38137 ft | 424 kts | 323° |
| 2026-05-09 12:44 | 47.91290 | 17.06174 | 38130 ft | 424 kts | 323° |
| 2026-05-09 12:45 | 47.95464 | 17.02081 | 38121 ft | 424 kts | 323° |
| 2026-05-09 12:45 | 48.00418 | 16.97215 | 38117 ft | 424 kts | 323° |
| 2026-05-09 12:46 | 48.05347 | 16.92363 | 38137 ft | 424 kts | 323° |
| 2026-05-09 12:46 | 48.10274 | 16.87503 | 38131 ft | 424 kts | 323° |
| 2026-05-09 12:47 | 48.15214 | 16.82614 | 38143 ft | 424 kts | 323° |
| 2026-05-09 12:47 | 48.20123 | 16.77739 | 38143 ft | 424 kts | 322° |
| 2026-05-09 12:48 | 48.25049 | 16.72841 | 38138 ft | 424 kts | 322° |
| 2026-05-09 12:48 | 48.29971 | 16.67928 | 38139 ft | 424 kts | 322° |
| 2026-05-09 12:49 | 48.34897 | 16.63003 | 38155 ft | 425 kts | 322° |
| 2026-05-09 12:49 | 48.39825 | 16.58074 | 38144 ft | 423 kts | 322° |
| 2026-05-09 12:49 | 48.42252 | 16.55645 | 37716 ft | 420 kts | 322° |
| 2026-05-09 12:50 | 48.44691 | 16.53198 | 37223 ft | 417 kts | 322° |
| 2026-05-09 12:50 | 48.47087 | 16.50791 | 37100 ft | 411 kts | 322° |
| 2026-05-09 12:50 | 48.49475 | 16.48388 | 37136 ft | 414 kts | 322° |
| 2026-05-09 12:51 | 48.54278 | 16.43536 | 37138 ft | 416 kts | 322° |
| 2026-05-09 12:51 | 48.59142 | 16.38622 | 37139 ft | 418 kts | 322° |
| 2026-05-09 12:52 | 48.64178 | 16.34122 | 37140 ft | 422 kts | 327° |
| 2026-05-09 12:52 | 48.69411 | 16.29864 | 37143 ft | 423 kts | 328° |
| 2026-05-09 12:53 | 48.74622 | 16.25646 | 37137 ft | 423 kts | 327° |
| 2026-05-09 12:53 | 48.79797 | 16.21406 | 37136 ft | 423 kts | 327° |
| 2026-05-09 12:54 | 48.84968 | 16.17142 | 37148 ft | 423 kts | 328° |
| 2026-05-09 12:54 | 48.90151 | 16.12854 | 37144 ft | 424 kts | 327° |
| 2026-05-09 12:55 | 48.95329 | 16.08566 | 37148 ft | 424 kts | 328° |
| 2026-05-09 12:55 | 49.00546 | 16.04234 | 37151 ft | 424 kts | 327° |
| 2026-05-09 12:56 | 49.05732 | 15.99913 | 37157 ft | 424 kts | 328° |
| 2026-05-09 12:56 | 49.10926 | 15.95586 | 37164 ft | 425 kts | 328° |
| 2026-05-09 12:57 | 49.16116 | 15.91242 | 37142 ft | 425 kts | 328° |
| 2026-05-09 12:57 | 49.21340 | 15.86858 | 37139 ft | 425 kts | 328° |
| 2026-05-09 12:58 | 49.26527 | 15.82499 | 37141 ft | 425 kts | 328° |
| 2026-05-09 12:58 | 49.31716 | 15.78126 | 37142 ft | 425 kts | 328° |
| 2026-05-09 12:59 | 49.36911 | 15.73741 | 37154 ft | 426 kts | 328° |
| 2026-05-09 12:59 | 49.42108 | 15.69358 | 37149 ft | 426 kts | 328° |
| 2026-05-09 13:00 | 49.47325 | 15.64929 | 37150 ft | 426 kts | 328° |
| 2026-05-09 13:00 | 49.52634 | 15.60397 | 37369 ft | 432 kts | 328° |
| 2026-05-09 13:00 | 49.55244 | 15.58170 | 37679 ft | 433 kts | 328° |
| 2026-05-09 13:01 | 49.57027 | 15.56650 | 37897 ft | 433 kts | 328° |
| 2026-05-09 13:01 | 49.59670 | 15.54398 | 38217 ft | 433 kts | 328° |
| 2026-05-09 13:01 | 49.62316 | 15.52139 | 38554 ft | 434 kts | 328° |
| 2026-05-09 13:01 | 49.64957 | 15.49879 | 38858 ft | 434 kts | 328° |
| 2026-05-09 13:02 | 49.67599 | 15.47618 | 39088 ft | 435 kts | 328° |
| 2026-05-09 13:02 | 49.73744 | 15.42339 | 39168 ft | 434 kts | 328° |
| 2026-05-09 13:03 | 49.78164 | 15.38531 | 39171 ft | 434 kts | 328° |
| 2026-05-09 13:03 | 49.83445 | 15.33968 | 39171 ft | 434 kts | 328° |
| 2026-05-09 13:04 | 49.88659 | 15.29455 | 39174 ft | 435 kts | 328° |
| 2026-05-09 13:04 | 49.93947 | 15.24881 | 39175 ft | 435 kts | 328° |
| 2026-05-09 13:05 | 49.99239 | 15.20281 | 39179 ft | 435 kts | 328° |
| 2026-05-09 13:05 | 50.04500 | 15.15708 | 39184 ft | 435 kts | 328° |
| 2026-05-09 13:06 | 50.09779 | 15.11089 | 39180 ft | 435 kts | 328° |
| 2026-05-09 13:06 | 50.14949 | 15.06553 | 39181 ft | 435 kts | 328° |
| 2026-05-09 13:07 | 50.20214 | 15.01934 | 39179 ft | 435 kts | 328° |
| 2026-05-09 13:07 | 50.25451 | 14.97317 | 39185 ft | 435 kts | 328° |
| 2026-05-09 13:08 | 50.30769 | 14.92618 | 39187 ft | 435 kts | 328° |
| 2026-05-09 13:08 | 50.36033 | 14.87951 | 39183 ft | 435 kts | 328° |
| 2026-05-09 13:09 | 50.41297 | 14.83286 | 39185 ft | 435 kts | 328° |
| 2026-05-09 13:09 | 50.46564 | 14.78600 | 39181 ft | 435 kts | 328° |
| 2026-05-09 13:10 | 50.51827 | 14.73904 | 39180 ft | 435 kts | 328° |
| 2026-05-09 13:10 | 50.57089 | 14.69181 | 39179 ft | 435 kts | 328° |
| 2026-05-09 13:11 | 50.62318 | 14.64488 | 39179 ft | 435 kts | 328° |
| 2026-05-09 13:11 | 50.67594 | 14.59762 | 39186 ft | 435 kts | 328° |
| 2026-05-09 13:12 | 50.72856 | 14.55020 | 39186 ft | 435 kts | 328° |
| 2026-05-09 13:12 | 50.78099 | 14.50260 | 39184 ft | 434 kts | 328° |
| 2026-05-09 13:13 | 50.83344 | 14.45498 | 39181 ft | 434 kts | 328° |
| 2026-05-09 13:13 | 50.88610 | 14.40795 | 39177 ft | 435 kts | 332° |
| 2026-05-09 13:14 | 50.94418 | 14.37889 | 39191 ft | 438 kts | 345° |
| 2026-05-09 13:16 | 51.18225 | 14.29170 | 39205 ft | 437 kts | 345° |
| 2026-05-09 13:16 | 51.24149 | 14.26989 | 39204 ft | 436 kts | 345° |
| 2026-05-09 13:17 | 51.30063 | 14.24804 | 39201 ft | 436 kts | 345° |
| 2026-05-09 13:17 | 51.35968 | 14.22609 | 39198 ft | 435 kts | 345° |
| 2026-05-09 13:18 | 51.41877 | 14.20412 | 39195 ft | 435 kts | 345° |
| 2026-05-09 13:18 | 51.47787 | 14.18210 | 39202 ft | 435 kts | 345° |
| 2026-05-09 13:19 | 51.53723 | 14.16000 | 39204 ft | 435 kts | 345° |
| 2026-05-09 13:19 | 51.59614 | 14.13797 | 39200 ft | 435 kts | 345° |
| 2026-05-09 13:20 | 51.65501 | 14.11581 | 39194 ft | 434 kts | 345° |
| 2026-05-09 13:20 | 51.71427 | 14.09344 | 39202 ft | 434 kts | 345° |
| 2026-05-09 13:21 | 51.77318 | 14.07115 | 39207 ft | 434 kts | 345° |
| 2026-05-09 13:21 | 51.83174 | 14.04903 | 39201 ft | 434 kts | 345° |
| 2026-05-09 13:22 | 51.89052 | 14.02685 | 39197 ft | 434 kts | 345° |
| 2026-05-09 13:22 | 51.94930 | 14.00445 | 39208 ft | 434 kts | 345° |
| 2026-05-09 13:23 | 52.07695 | 13.95551 | 39207 ft | 433 kts | 345° |
| 2026-05-09 13:25 | 52.13376 | 13.93363 | 39209 ft | 433 kts | 345° |
| 2026-05-09 13:26 | 52.22142 | 13.89993 | 39218 ft | 432 kts | 345° |
| 2026-05-09 13:26 | 52.27987 | 13.87744 | 39218 ft | 431 kts | 345° |
| 2026-05-09 13:27 | 52.33826 | 13.85473 | 39212 ft | 431 kts | 345° |
| 2026-05-09 13:27 | 52.39658 | 13.83208 | 39211 ft | 430 kts | 345° |
| 2026-05-09 13:28 | 52.44498 | 13.81325 | 39218 ft | 430 kts | 345° |
| 2026-05-09 13:28 | 52.50373 | 13.79026 | 39211 ft | 430 kts | 345° |
| 2026-05-09 13:29 | 52.56198 | 13.76744 | 39215 ft | 430 kts | 345° |
| 2026-05-09 13:29 | 52.62019 | 13.74449 | 39212 ft | 430 kts | 345° |
| 2026-05-09 13:30 | 52.67847 | 13.72156 | 39212 ft | 430 kts | 345° |
| 2026-05-09 13:30 | 52.73713 | 13.69847 | 39211 ft | 430 kts | 345° |
| 2026-05-09 13:31 | 52.79539 | 13.67544 | 39214 ft | 430 kts | 345° |
| 2026-05-09 13:31 | 52.85356 | 13.65229 | 39213 ft | 430 kts | 345° |
| 2026-05-09 13:32 | 52.91178 | 13.62916 | 39212 ft | 429 kts | 345° |
| 2026-05-09 13:32 | 52.99885 | 13.59435 | 39225 ft | 429 kts | 345° |
| 2026-05-09 13:33 | 53.05699 | 13.57106 | 39220 ft | 429 kts | 345° |
| 2026-05-09 13:33 | 53.11507 | 13.54774 | 39220 ft | 429 kts | 345° |
| 2026-05-09 13:34 | 53.17308 | 13.52422 | 39216 ft | 429 kts | 345° |
| 2026-05-09 13:34 | 53.23121 | 13.50076 | 39225 ft | 429 kts | 345° |
| 2026-05-09 13:35 | 53.28916 | 13.47726 | 39222 ft | 429 kts | 345° |
| 2026-05-09 13:35 | 53.34715 | 13.45358 | 39213 ft | 429 kts | 345° |
| 2026-05-09 13:36 | 53.40506 | 13.42997 | 39217 ft | 428 kts | 345° |
| 2026-05-09 13:36 | 53.46310 | 13.40631 | 39219 ft | 428 kts | 345° |
| 2026-05-09 13:37 | 53.52099 | 13.38273 | 39226 ft | 428 kts | 345° |
| 2026-05-09 13:37 | 53.57885 | 13.35894 | 39225 ft | 428 kts | 345° |
| 2026-05-09 13:38 | 53.63682 | 13.33506 | 39220 ft | 428 kts | 345° |
| 2026-05-09 13:38 | 53.69454 | 13.31125 | 38922 ft | 427 kts | 345° |
| 2026-05-09 13:39 | 53.72339 | 13.29929 | 38629 ft | 426 kts | 345° |
| 2026-05-09 13:39 | 53.75220 | 13.28733 | 37966 ft | 426 kts | 345° |
| 2026-05-09 13:39 | 53.78096 | 13.27538 | 37296 ft | 426 kts | 346° |
| 2026-05-09 13:39 | 53.80985 | 13.26341 | 36541 ft | 427 kts | 346° |
| 2026-05-09 13:40 | 53.83869 | 13.25141 | 36012 ft | 423 kts | 346° |
| 2026-05-09 13:40 | 53.86713 | 13.23952 | 35502 ft | 418 kts | 346° |
| 2026-05-09 13:40 | 53.89524 | 13.22773 | 34952 ft | 415 kts | 347° |
| 2026-05-09 13:40 | 53.92317 | 13.21598 | 34389 ft | 411 kts | 346° |
| 2026-05-09 13:41 | 53.95086 | 13.20432 | 33791 ft | 407 kts | 346° |
| 2026-05-09 13:41 | 53.97773 | 13.19302 | 33259 ft | 403 kts | 346° |
| 2026-05-09 13:41 | 54.00471 | 13.18171 | 32697 ft | 398 kts | 346° |
| 2026-05-09 13:41 | 54.03155 | 13.17046 | 32170 ft | 393 kts | 346° |
| 2026-05-09 13:42 | 54.05796 | 13.15939 | 31621 ft | 389 kts | 346° |
| 2026-05-09 13:42 | 54.08414 | 13.14839 | 31103 ft | 386 kts | 346° |
| 2026-05-09 13:42 | 54.11047 | 13.13723 | 30573 ft | 382 kts | 346° |
| 2026-05-09 13:42 | 54.13614 | 13.12634 | 30034 ft | 379 kts | 346° |
| 2026-05-09 13:43 | 54.16161 | 13.11553 | 29507 ft | 373 kts | 346° |
| 2026-05-09 13:43 | 54.18660 | 13.10490 | 29013 ft | 368 kts | 346° |
| 2026-05-09 13:43 | 54.21128 | 13.09441 | 28517 ft | 363 kts | 346° |
| 2026-05-09 13:43 | 54.23560 | 13.08410 | 28047 ft | 358 kts | 346° |
| 2026-05-09 13:44 | 54.25970 | 13.07388 | 27578 ft | 353 kts | 346° |
| 2026-05-09 13:44 | 54.28347 | 13.06376 | 27123 ft | 349 kts | 346° |
| 2026-05-09 13:44 | 54.30671 | 13.05383 | 26694 ft | 345 kts | 345° |
| 2026-05-09 13:44 | 54.32999 | 13.04388 | 26269 ft | 343 kts | 345° |
| 2026-05-09 13:45 | 54.35314 | 13.03400 | 25819 ft | 341 kts | 345° |
| 2026-05-09 13:45 | 54.37647 | 13.02405 | 25415 ft | 340 kts | 345° |
| 2026-05-09 13:45 | 54.39938 | 13.01426 | 24997 ft | 338 kts | 345° |
| 2026-05-09 13:45 | 54.42222 | 13.00446 | 24595 ft | 337 kts | 345° |
| 2026-05-09 13:46 | 54.44493 | 12.99469 | 24178 ft | 336 kts | 345° |
| 2026-05-09 13:46 | 54.46755 | 12.98494 | 23755 ft | 334 kts | 345° |
| 2026-05-09 13:46 | 54.49006 | 12.97524 | 23288 ft | 333 kts | 345° |
| 2026-05-09 13:46 | 54.51247 | 12.96556 | 22858 ft | 331 kts | 344° |
| 2026-05-09 13:47 | 54.53489 | 12.95585 | 22445 ft | 332 kts | 345° |
| 2026-05-09 13:47 | 54.55725 | 12.94621 | 22014 ft | 331 kts | 345° |
| 2026-05-09 13:47 | 54.57958 | 12.93659 | 21596 ft | 329 kts | 345° |
| 2026-05-09 13:47 | 54.60173 | 12.92703 | 21156 ft | 328 kts | 345° |
| 2026-05-09 13:48 | 54.62378 | 12.91750 | 20718 ft | 326 kts | 345° |
| 2026-05-09 13:48 | 54.64581 | 12.90797 | 20288 ft | 325 kts | 345° |
| 2026-05-09 13:48 | 54.66768 | 12.89849 | 19849 ft | 323 kts | 345° |
| 2026-05-09 13:48 | 54.68949 | 12.88898 | 19416 ft | 322 kts | 345° |
| 2026-05-09 13:49 | 54.71112 | 12.87951 | 18980 ft | 320 kts | 345° |
| 2026-05-09 13:49 | 54.73267 | 12.87009 | 18558 ft | 319 kts | 345° |
| 2026-05-09 13:49 | 54.75386 | 12.86084 | 18101 ft | 317 kts | 345° |
| 2026-05-09 13:49 | 54.77547 | 12.85141 | 17669 ft | 315 kts | 344° |
| 2026-05-09 13:50 | 54.79665 | 12.84217 | 17265 ft | 313 kts | 344° |
| 2026-05-09 13:50 | 54.81767 | 12.83296 | 16849 ft | 311 kts | 345° |
| 2026-05-09 13:50 | 54.83858 | 12.82377 | 16448 ft | 309 kts | 345° |
| 2026-05-09 13:50 | 54.85939 | 12.81463 | 16048 ft | 308 kts | 345° |
| 2026-05-09 13:51 | 54.88015 | 12.80550 | 15648 ft | 308 kts | 345° |
| 2026-05-09 13:51 | 54.90084 | 12.79642 | 15240 ft | 306 kts | 344° |
| 2026-05-09 13:51 | 54.92123 | 12.78744 | 14846 ft | 304 kts | 344° |
| 2026-05-09 13:51 | 54.94198 | 12.77828 | 14439 ft | 303 kts | 344° |